createdAt,value
2023-11-03T00:02:33.021Z,8.90
2023-11-03T00:05:14.585Z,8.50
2023-11-03T00:07:53.056Z,8.60
2023-11-03T00:10:21.300Z,8.40
2023-11-03T00:12:48.777Z,8.80
2023-11-03T00:15:16.228Z,8.80
2023-11-03T00:17:55.539Z,8.70
2023-11-03T00:20:23.098Z,8.60
2023-11-03T00:22:50.471Z,8.70
2023-11-03T00:25:19.624Z,8.80
2023-11-03T00:27:48.530Z,8.90
2023-11-03T00:30:16.120Z,9.10
2023-11-03T00:32:46.413Z,8.80
2023-11-03T00:35:17.164Z,8.70
2023-11-03T00:37:52.649Z,8.60
2023-11-03T00:40:25.964Z,8.70
2023-11-03T00:42:53.656Z,8.90
2023-11-03T00:45:24.004Z,9.10
2023-11-03T00:48:24.807Z,8.80
2023-11-03T00:56:26.160Z,9.10
2023-11-03T00:58:55.313Z,9.20
2023-11-03T01:04:07.151Z,9.30
2023-11-03T01:06:34.914Z,9.30
2023-11-03T01:09:19.958Z,9.20
2023-11-03T01:11:57.714Z,9.20
2023-11-03T01:14:34.322Z,9.20
2023-11-03T01:17:04.068Z,9.00
2023-11-03T01:19:35.580Z,9.30
2023-11-03T01:22:13.334Z,9.00
2023-11-03T01:24:54.941Z,9.40
2023-11-03T01:27:25.323Z,9.20
2023-11-03T01:29:53.545Z,9.00
2023-11-03T01:38:33.450Z,9.20
2023-11-03T01:44:34.669Z,8.90
2023-11-03T01:49:57.556Z,8.90
2023-11-03T01:52:29.577Z,9.10
2023-11-03T01:58:19.620Z,9.00
2023-11-03T02:01:08.951Z,8.80
2023-11-03T02:17:10.257Z,9.00
2023-11-03T02:20:03.801Z,8.60
2023-11-03T02:22:52.961Z,8.70
2023-11-03T02:25:23.028Z,9.10
2023-11-03T02:27:58.701Z,8.80
2023-11-03T02:30:56.409Z,8.70
2023-11-03T02:33:47.236Z,8.70
2023-11-03T02:36:51.866Z,9.00
2023-11-03T02:45:21.107Z,9.10
2023-11-03T02:48:18.414Z,9.10
2023-11-03T03:07:06.569Z,9.10
2023-11-03T03:09:59.833Z,9.10
2023-11-03T03:15:39.599Z,9.00
2023-11-03T03:18:13.838Z,9.00
2023-11-03T03:20:44.964Z,8.70
2023-11-03T03:26:12.374Z,8.60
2023-11-03T03:28:59.273Z,8.60
2023-11-03T03:31:55.405Z,8.50
2023-11-03T03:37:44.095Z,8.40
2023-11-03T03:43:16.050Z,8.50
2023-11-03T03:45:44.667Z,8.40
2023-11-03T03:51:24.643Z,8.40
2023-11-03T03:54:01.265Z,8.40
2023-11-03T03:59:43.866Z,8.50
2023-11-03T04:02:19.190Z,8.40
2023-11-03T04:04:48.978Z,8.40
2023-11-03T04:07:37.667Z,8.40
2023-11-03T04:10:06.839Z,8.40
2023-11-03T04:12:36.783Z,8.10
2023-11-03T04:15:15.222Z,8.00
2023-11-03T04:17:42.414Z,8.00
2023-11-03T04:20:19.482Z,8.10
2023-11-03T04:25:47.060Z,8.40
2023-11-03T04:28:17.447Z,8.20
2023-11-03T04:33:29.568Z,8.00
2023-11-03T04:39:49.463Z,8.00
2023-11-03T04:49:27.796Z,8.00
2023-11-03T04:54:58.194Z,8.10
2023-11-03T04:57:32.534Z,8.10
2023-11-03T05:00:14.961Z,7.90
2023-11-03T05:02:42.204Z,8.20
2023-11-03T05:05:22.404Z,8.10
2023-11-03T05:07:52.446Z,7.90
2023-11-03T05:14:02.335Z,7.90
2023-11-03T05:16:56.366Z,7.90
2023-11-03T05:19:55.200Z,7.90
2023-11-03T05:23:20.908Z,7.90
2023-11-03T05:25:48.162Z,8.00
2023-11-03T05:28:46.241Z,7.90
2023-11-03T05:31:18.692Z,7.90
2023-11-03T05:33:49.161Z,8.00
2023-11-03T05:36:22.473Z,7.90
2023-11-03T05:39:10.596Z,7.90
2023-11-03T05:44:26.726Z,7.90
2023-11-03T05:46:55.352Z,8.10
2023-11-03T05:49:23.858Z,7.90
2023-11-03T05:52:11.425Z,7.70
2023-11-03T05:54:52.419Z,7.90
2023-11-03T05:57:27.746Z,7.90
2023-11-03T06:00:00.662Z,7.90
2023-11-03T06:02:48.786Z,7.80
2023-11-03T06:05:31.994Z,7.90
2023-11-03T06:08:03.997Z,8.20
2023-11-03T06:10:57.671Z,7.90
2023-11-03T06:13:52.531Z,8.00
2023-11-03T06:16:23.193Z,8.00
2023-11-03T06:19:02.225Z,8.10
2023-11-03T06:21:29.904Z,8.10
2023-11-03T06:27:06.965Z,7.80
2023-11-03T06:29:53.230Z,8.10
2023-11-03T06:32:41.847Z,7.80
2023-11-03T06:35:20.341Z,7.70
2023-11-03T06:38:00.788Z,8.00
2023-11-03T06:40:42.846Z,7.90
2023-11-03T06:43:39.608Z,7.80
2023-11-03T06:55:13.650Z,8.40
2023-11-03T06:57:51.626Z,8.40
2023-11-03T07:01:13.029Z,8.20
2023-11-03T07:04:05.099Z,8.10
2023-11-03T07:06:41.905Z,8.30
2023-11-03T07:12:14.127Z,8.30
2023-11-03T07:15:07.541Z,8.30
2023-11-03T07:21:03.242Z,8.20
2023-11-03T07:23:33.258Z,8.50
2023-11-03T07:28:58.272Z,8.30
2023-11-03T07:31:58.877Z,8.50
2023-11-03T07:35:10.757Z,8.40
2023-11-03T07:38:08.538Z,8.40
2023-11-03T07:40:46.349Z,8.30
2023-11-03T07:43:22.970Z,8.20
2023-11-03T07:46:13.037Z,8.40
2023-11-03T07:49:35.635Z,8.40
2023-11-03T07:52:23.578Z,8.30
2023-11-03T07:54:56.115Z,8.20
2023-11-03T07:57:42.936Z,8.10
2023-11-03T08:07:39.267Z,8.30
2023-11-03T08:10:07.441Z,8.10
2023-11-03T08:12:40.078Z,8.30
2023-11-03T08:15:27.697Z,8.20
2023-11-03T08:18:25.127Z,8.30
2023-11-03T08:24:14.961Z,8.10
2023-11-03T08:27:12.016Z,8.10
2023-11-03T08:33:26.108Z,8.20
2023-11-03T08:45:54.546Z,8.20
2023-11-03T08:49:08.596Z,8.20
2023-11-03T08:55:57.798Z,8.20
2023-11-03T08:58:48.119Z,8.20
2023-11-03T09:01:30.034Z,8.30
2023-11-03T09:04:13.820Z,8.30
2023-11-03T09:07:12.354Z,8.60
2023-11-03T09:20:01.049Z,8.80
2023-11-03T09:22:54.759Z,8.90
2023-11-03T09:25:58.514Z,8.60
2023-11-03T09:28:30.674Z,8.90
2023-11-03T09:31:09.217Z,9.10
2023-11-03T09:34:00.682Z,8.60
2023-11-03T09:36:32.330Z,8.90
2023-11-03T09:39:02.053Z,8.60
2023-11-03T09:42:03.423Z,9.10
2023-11-03T09:50:36.293Z,9.20
2023-11-03T09:53:27.712Z,8.90
2023-11-03T09:56:22.384Z,9.00
2023-11-03T09:58:59.215Z,9.20
2023-11-03T10:01:34.798Z,9.20
2023-11-03T10:04:46.891Z,9.10
2023-11-03T10:11:18.408Z,9.20
2023-11-03T10:14:29.756Z,9.00
2023-11-03T10:17:09.022Z,9.20
2023-11-03T10:20:11.426Z,9.40
2023-11-03T10:37:53.565Z,9.50
2023-11-03T10:40:25.343Z,9.50
2023-11-03T10:46:27.934Z,9.50
2023-11-03T10:56:32.847Z,9.80
2023-11-03T10:59:34.148Z,9.80
2023-11-03T11:02:34.797Z,9.90
2023-11-03T11:05:43.987Z,9.70
2023-11-03T11:08:16.895Z,9.80
2023-11-03T11:10:50.090Z,9.80
2023-11-03T11:13:51.189Z,10.20
2023-11-03T11:19:48.097Z,10.30
2023-11-03T11:22:28.458Z,10.30
2023-11-03T11:28:45.788Z,10.20
2023-11-03T11:31:32.483Z,9.90
2023-11-03T11:34:26.445Z,9.90
2023-11-03T11:37:32.492Z,10.00
2023-11-03T11:40:35.737Z,10.00
2023-11-03T11:43:14.918Z,10.30
2023-11-03T11:46:31.259Z,10.40
2023-11-03T11:49:28.989Z,10.30
2023-11-03T11:58:00.032Z,10.60
2023-11-03T12:00:58.992Z,10.40
2023-11-03T12:04:11.457Z,10.50
2023-11-03T12:06:57.005Z,10.60
2023-11-03T12:09:26.967Z,10.60
2023-11-03T12:12:32.321Z,10.40
2023-11-03T12:17:51.113Z,10.40
2023-11-03T12:18:34.552Z,10.40
2023-11-03T12:24:11.576Z,10.30
2023-11-03T12:27:02.736Z,10.30
2023-11-03T12:30:14.168Z,10.20
2023-11-03T12:32:54.016Z,10.10
2023-11-03T12:41:46.448Z,10.20
2023-11-03T12:44:19.266Z,10.00
2023-11-03T12:46:56.130Z,10.40
2023-11-03T12:52:20.003Z,10.40
2023-11-03T12:55:08.771Z,10.60
2023-11-03T12:58:01.032Z,10.60
2023-11-03T13:00:50.785Z,10.70
2023-11-03T13:03:51.193Z,10.60
2023-11-03T13:06:48.573Z,10.50
2023-11-03T13:09:29.363Z,10.80
2023-11-03T13:11:58.479Z,10.70
2023-11-03T13:14:26.090Z,10.50
2023-11-03T13:20:26.464Z,10.80
2023-11-03T13:23:05.222Z,10.80
2023-11-03T13:25:33.066Z,10.80
2023-11-03T13:28:15.568Z,11.00
2023-11-03T13:34:20.348Z,10.70
2023-11-03T13:37:11.150Z,10.80
2023-11-03T13:43:32.171Z,10.90
2023-11-03T13:46:19.385Z,11.00
2023-11-03T13:50:01.490Z,11.30
2023-11-03T13:53:08.051Z,11.80
2023-11-03T14:20:07.874Z,12.50
2023-11-03T14:29:22.024Z,19.20
2023-11-03T14:32:16.526Z,21.00
2023-11-03T14:38:05.012Z,23.10
2023-11-03T14:41:12.881Z,23.70
2023-11-03T14:43:51.411Z,23.70
2023-11-03T14:47:54.371Z,24.20
2023-11-03T14:51:05.093Z,24.60
2023-11-03T14:53:14.442Z,25.10
2023-11-03T14:56:02.874Z,25.20
2023-11-03T14:58:33.700Z,25.30
2023-11-03T15:01:46.715Z,25.20
2023-11-03T15:04:18.601Z,24.90
2023-11-03T15:09:38.084Z,21.80
2023-11-03T15:12:22.012Z,20.10
2023-11-03T15:17:51.523Z,17.40
2023-11-03T15:24:47.118Z,15.60
2023-11-03T15:28:25.314Z,14.40
2023-11-03T16:20:02.175Z,11.00
2023-11-03T16:23:54.472Z,11.30
2023-11-03T16:26:21.494Z,12.90
2023-11-03T16:28:49.117Z,14.50
2023-11-03T16:31:16.223Z,16.00
2023-11-03T16:33:43.368Z,17.40
2023-11-03T16:36:18.909Z,18.10
2023-11-03T16:38:49.060Z,19.10
2023-11-03T16:41:19.401Z,19.60
2023-11-03T16:43:46.724Z,20.20
2023-11-03T16:47:05.434Z,20.60
2023-11-03T16:49:51.599Z,21.10
2023-11-03T16:52:39.303Z,21.40
2023-11-03T16:55:26.111Z,21.60
2023-11-03T17:02:14.517Z,21.40
2023-11-03T17:05:00.888Z,19.60
2023-11-03T17:07:46.643Z,17.30
2023-11-03T17:13:02.222Z,15.60
2023-11-03T17:15:30.394Z,13.20
2023-11-03T17:17:57.826Z,12.20
2023-11-03T17:20:25.157Z,11.50
2023-11-03T17:22:53.275Z,11.10
2023-11-03T17:25:21.736Z,10.90
2023-11-03T17:27:50.698Z,10.40
2023-11-03T17:30:21.055Z,10.30
2023-11-03T17:32:53.659Z,9.90
2023-11-03T17:35:28.256Z,9.60
2023-11-03T17:37:58.495Z,9.80
2023-11-03T17:43:19.213Z,9.30
2023-11-03T17:45:47.139Z,9.30
2023-11-03T17:48:14.631Z,9.30
2023-11-03T17:50:46.132Z,9.20
2023-11-03T17:53:13.279Z,9.20
2023-11-03T17:55:40.458Z,9.10
2023-11-03T17:58:07.715Z,9.30
2023-11-03T18:00:34.939Z,9.20
2023-11-03T18:03:02.657Z,9.20
2023-11-03T18:05:29.989Z,9.10
2023-11-03T18:07:57.237Z,8.70
2023-11-03T18:10:24.675Z,9.10
2023-11-03T18:12:53.710Z,8.90
2023-11-03T18:15:25.672Z,8.90
2023-11-03T18:17:53.165Z,9.00
2023-11-03T18:20:20.534Z,8.90
2023-11-03T18:22:49.385Z,8.70
2023-11-03T18:25:17.435Z,8.90
2023-11-03T18:27:45.008Z,9.00
2023-11-03T18:30:12.919Z,9.00
2023-11-03T18:32:41.163Z,8.90
2023-11-03T18:35:11.694Z,8.70
2023-11-03T18:37:40.956Z,8.80
2023-11-03T18:40:15.251Z,8.90
2023-11-03T18:42:43.550Z,8.80
2023-11-03T18:45:15.061Z,8.80
2023-11-03T18:47:43.002Z,8.90
2023-11-03T18:52:42.575Z,8.90
2023-11-03T18:56:05.478Z,8.50
2023-11-03T19:02:06.901Z,8.50
2023-11-03T19:04:41.910Z,8.60
2023-11-03T19:07:29.248Z,8.50
2023-11-03T19:08:51.832Z,8.40
2023-11-03T19:11:19.810Z,8.50
2023-11-03T19:13:48.121Z,8.60
2023-11-03T19:16:15.247Z,8.70
2023-11-03T19:18:42.407Z,8.40
2023-11-03T19:21:09.577Z,8.80
2023-11-03T19:23:38.636Z,8.50
2023-11-03T19:26:05.845Z,8.50
2023-11-03T19:28:34.044Z,8.50
2023-11-03T19:31:03.619Z,8.70
2023-11-03T19:33:32.535Z,8.30
2023-11-03T19:36:01.514Z,8.40
2023-11-03T19:38:28.871Z,8.20
2023-11-03T19:40:56.717Z,8.30
2023-11-03T19:43:24.166Z,7.60
2023-11-03T19:45:51.483Z,7.50
2023-11-03T19:48:19.167Z,7.60
2023-11-03T19:50:47.496Z,7.70
2023-11-03T19:53:17.377Z,7.60
2023-11-03T19:55:45.786Z,7.50
2023-11-03T19:58:14.061Z,8.00
2023-11-03T20:00:44.316Z,7.80
2023-11-03T20:03:11.553Z,7.90
2023-11-03T20:05:39.809Z,8.10
2023-11-03T20:08:10.577Z,7.90
2023-11-03T20:10:38.380Z,7.90
2023-11-03T20:13:06.034Z,7.80
2023-11-03T20:15:34.798Z,7.70
2023-11-03T20:18:04.515Z,7.60
2023-11-03T20:20:31.744Z,7.60
2023-11-03T20:23:01.051Z,7.80
2023-11-03T20:25:28.205Z,7.90
2023-11-03T20:27:55.698Z,7.60
2023-11-03T20:30:22.862Z,7.50
2023-11-03T20:32:50.126Z,7.60
2023-11-03T20:35:19.260Z,7.70
2023-11-03T20:37:46.525Z,7.80
2023-11-03T20:40:13.984Z,7.70
2023-11-03T20:42:41.304Z,7.60
2023-11-03T20:45:09.263Z,7.50
2023-11-03T20:47:36.556Z,7.60
2023-11-03T20:50:04.465Z,7.60
2023-11-03T20:52:34.850Z,7.70
2023-11-03T20:55:02.234Z,7.60
2023-11-03T20:57:29.620Z,7.50
2023-11-03T20:59:56.817Z,7.50
2023-11-03T21:02:24.474Z,7.70
2023-11-03T21:04:51.875Z,7.40
2023-11-03T21:07:19.176Z,7.40
2023-11-03T21:09:46.391Z,7.40
2023-11-03T21:12:16.802Z,7.40
2023-11-03T21:14:45.443Z,7.40
2023-11-03T21:17:12.643Z,7.50
2023-11-03T21:19:39.806Z,7.40
2023-11-03T21:22:07.000Z,7.50
2023-11-03T21:24:35.017Z,7.50
2023-11-03T21:27:03.279Z,7.60
2023-11-03T21:29:30.714Z,7.40
2023-11-03T21:31:57.914Z,7.40
2023-11-03T21:34:25.256Z,7.40
2023-11-03T21:36:52.866Z,7.60
2023-11-03T21:39:20.151Z,7.70
2023-11-03T21:41:47.456Z,7.50
2023-11-03T21:44:15.005Z,7.70
2023-11-03T21:46:42.386Z,7.50
2023-11-03T21:49:10.553Z,7.60
2023-11-03T21:51:38.374Z,7.70
2023-11-03T21:54:06.352Z,7.60
2023-11-03T21:56:33.478Z,7.60
2023-11-03T21:59:01.020Z,7.60
2023-11-03T22:01:28.177Z,7.70
2023-11-03T22:03:55.410Z,7.70
2023-11-03T22:06:22.611Z,7.80
2023-11-03T22:08:57.157Z,7.70
2023-11-03T22:11:31.233Z,7.90
2023-11-03T22:13:58.347Z,7.80
2023-11-03T22:16:26.142Z,8.00
2023-11-03T22:18:55.475Z,7.90
2023-11-03T22:21:23.380Z,8.10
2023-11-03T22:23:52.784Z,7.90
2023-11-03T22:26:24.658Z,7.80
2023-11-03T22:28:56.189Z,8.40
2023-11-03T22:31:23.343Z,8.30
2023-11-03T22:33:50.668Z,8.10
2023-11-03T22:36:17.943Z,8.30
2023-11-03T22:38:45.268Z,8.20
2023-11-03T22:41:12.630Z,8.50
2023-11-03T22:43:41.979Z,8.60
2023-11-03T22:46:09.212Z,8.60
2023-11-03T22:48:36.510Z,8.30
2023-11-03T22:51:04.000Z,8.30
2023-11-03T22:53:31.460Z,8.60
2023-11-03T22:55:58.545Z,8.40
2023-11-03T22:58:25.687Z,8.70
2023-11-03T23:00:52.799Z,8.40
2023-11-03T23:03:21.954Z,8.60
2023-11-03T23:05:49.370Z,8.50
2023-11-03T23:08:16.538Z,8.20
2023-11-03T23:10:46.906Z,8.60
2023-11-03T23:13:13.981Z,8.20
2023-11-03T23:15:41.421Z,8.50
2023-11-03T23:18:08.984Z,8.50
2023-11-03T23:20:36.466Z,8.40
2023-11-03T23:23:05.669Z,8.40
2023-11-03T23:25:32.928Z,8.50
2023-11-03T23:27:59.992Z,8.40
2023-11-03T23:30:27.683Z,8.70
2023-11-03T23:32:55.311Z,8.80
2023-11-03T23:35:24.022Z,8.60
2023-11-03T23:37:51.233Z,8.70
2023-11-03T23:40:18.311Z,8.70
2023-11-03T23:42:45.566Z,8.50
2023-11-03T23:45:12.900Z,8.70
2023-11-03T23:47:40.159Z,8.60
2023-11-03T23:50:08.881Z,8.70
2023-11-03T23:52:36.160Z,8.50
2023-11-03T23:55:06.528Z,8.60
2023-11-03T23:57:34.348Z,8.30
